Accueil
METAR-TAF:

METAR-TAF

Aéroports :

Aéroport de Chesterfield Inlet

Baie Chesterfield, Nunavut, Canada

latitude: 63-20N, longitude: 090-43W, altitude: 11 m

Observation

Le bulletin a été fait il y a 2 heures et 7 minutes, à 12:00 UTC
Vent 10 kt de ouest
Température -4°C
Humidité 86%
Pression 1020 hPa
Visibilité: 24.1 km
Quelques nuages à une hauteur de 900 ft

METAR: CYCS 011200Z 28010KT 15SM FEW009 M04/M06 A3012 RMK ST2 S00 AFT 20 UTC/25 MEDIUM PACK SLP203

Heure: 09:07 (14:07 UTC)


TAF: absent

Observations et prévisions météorologiques de plus de 4000 aéroports (messages METAR et TAF).

Les stations disponibles sont représentées par des disques jaunes et rouges sur la carte.

Passer la souris dessus pour voir le nom de la station.

Cliquer dessus pour voir les observations et prévisions météorologiques.

Pour changer de carte: cliquez sur les boutons verts avec une croix noire pour zoomer, sur le bouton vert avec un tiret pour effectuer un zoom arrière, ou sur les flèches vertes pour les cartes adjacentes.


METAR-TAF: